Black, Alabama
Current Conditions -  °F | °C
As of 4:58 PM on Tuesday 27 Jan 2015 (Local Time) from K1J0 Reporting Station
Clear Clear  
Wind Chill: 59°   Ceiling: Unl
Heat Index: 59°   Visibility: 10mi
Dew Point: 35°   Wind: 6mph
Humidity: 41%   Direction: 330°NNW
Pressure: 30.02"   Gusts: NA
Location:  31.01°N, 85.74°W
Report Text: K1J0 272258Z AUTO 33005KT 10SM CLR 15/02 A3002 RMK AO2 SLP150 T01500017
Loading
Personal Weather Stations






























Interactive Weather Map New forecast layout! Learn more

10-Day Weather Forecast

Advertisements
Track Severe Weather on mobile